Impacts METAR Board
IDs:

KMEM - Memphis Intl, TN, US

Updated at: 2100 UTC 21 May 2022
Potential Impact None Slight Moderate High
Time 21/09Z 21/10Z 21/11Z 21/12Z 21/13Z 21/14Z 21/15Z 21/16Z 21/17Z 21/18Z 21/19Z 21/20Z 21/21Z
Temp76 76 74 76 77 77 80 85 87 87 88 85 72
Dewpt67 67 67 69 70 71 71 72 72 72 71 71 67
Altim29.88 29.89 29.92 29.95 29.98 30.00 30.01 30.02 30.01 30.00 29.99 29.97 29.95
VIS9 9 10 9 8 8 10 10 10 10 10 10 10
CIG-- -- 250 17 14 14 20 34 38 39 35 50 90
CoverFEWFEWBKNOVCOVCOVCOVCBKNOVCOVCOVCOVCOVC
FltCatVFRVFRVFRMVFRMVFRMVFRMVFRVFRVFRVFRVFRVFRVFR
WX----------------------TS-RA
WDir180160170180200190190210180180180170170
WSpd9 10 9 8 9 9 11 13 15 13 14 9 11
WGst-- 19 -- -- 17 -- 17 26 21 -- 22 -- --
Raw hourly METARs
KMEM 210854Z 18009KT 9SM FEW050 24/19 A2988 RMK AO2 SLP114 T02440194 53008
KMEM 210954Z 16010G19KT 9SM FEW250 24/19 A2989 RMK AO2 SLP117 T02440194
KMEM 211054Z 17009KT 10SM BKN250 23/19 A2992 RMK AO2 SLP129 T02330194
KMEM 211154Z 18008KT 9SM OVC017 24/21 A2995 RMK AO2 SLP138 T02440206 10267 20233 53022
KMEM 211254Z 20009G17KT 160V230 8SM OVC014 25/21 A2998 RMK AO2 SLP148 T02500211
KMEM 211354Z 19009KT 8SM OVC014 25/22 A3000 RMK AO2 SLP154 T02500217
KMEM 211454Z 19011G17KT 150V230 10SM OVC020 27/22 A3001 RMK AO2 SLP158 T02670217 51020
KMEM 211554Z 21013G26KT 10SM FEW025 BKN034 29/22 A3002 RMK AO2 PK WND 20026/1552 SLP162 T02940222
KMEM 211654Z 18015G21KT 10SM BKN038 OVC250 31/22 A3001 RMK AO2 SLP157 T03060222
KMEM 211754Z 18013KT 10SM BKN039 OVC250 31/22 A3000 RMK AO2 SLP153 T03060222 10317 20244 58004
KMEM 211854Z 18014G22KT 10SM BKN035 BKN170 OVC250 31/22 A2999 RMK AO2 SLP150 T03110217
KMEM 211954Z 17009KT 10SM TS OVC050CB 29/22 A2997 RMK AO2 LTG DSNT SW AND W SLP145 OCNL LTGICCG OHD TS OHD MOV E T02940217
KMEM 212101Z 17011KT 10SM -RA FEW032 BKN090 OVC100 22/19 A2995 RMK AO2 LTG DSNT NE-S TSE00 P0000 T02220194



Page loaded:  21:39 UTC  |   02:39 PM Pacific  |   03:39 PM Mountain  |   04:39 PM Central  |   05:39 PM Eastern

 

ADVISORIES

FORECASTS

FORECASTS

OBSERVATIONS

USER TOOLS

ABOUT US